Bryan, Texas
Current Conditions -  °F | °C
As of 11:35 AM on Friday 28 Nov 2014 (Local Time) from KCFD Reporting Station
Clear Clear  
Wind Chill: 66°   Ceiling: Unl
Heat Index: 66°   Visibility: 10mi
Dew Point: 51°   Wind: 12mph
Humidity: 59%   Direction: 190°S
Pressure: 30.28"   Gusts: NA
Location:  30.67°N, 96.37°W
Report Text: KCFD 281735Z AUTO 19010KT 10SM CLR 19/11 A3028 RMK AO2 T01890108
Loading
Personal Weather Stations






























Interactive Weather Map New forecast layout! Learn more

10-Day Weather Forecast

Advertisements
Track Severe Weather on mobile